sensor_id;sensor_type;location;lat;lon;timestamp;P1;durP1;ratioP1;P2;durP2;ratioP2
6292;SDS011;3179;54.350;10.102;2023-02-13T00:00:57;9.00;;;6.53;;
6292;SDS011;3179;54.350;10.102;2023-02-13T00:03:24;7.63;;;6.30;;
6292;SDS011;3179;54.350;10.102;2023-02-13T00:05:51;7.37;;;5.90;;
6292;SDS011;3179;54.350;10.102;2023-02-13T00:08:19;10.50;;;6.93;;
6292;SDS011;3179;54.350;10.102;2023-02-13T00:10:46;8.30;;;6.60;;
6292;SDS011;3179;54.350;10.102;2023-02-13T00:13:13;8.07;;;6.20;;
6292;SDS011;3179;54.350;10.102;2023-02-13T00:15:40;9.07;;;5.60;;
6292;SDS011;3179;54.350;10.102;2023-02-13T00:18:07;7.00;;;5.50;;
6292;SDS011;3179;54.350;10.102;2023-02-13T00:20:33;9.57;;;7.10;;
6292;SDS011;3179;54.350;10.102;2023-02-13T00:23:00;8.20;;;6.10;;
6292;SDS011;3179;54.350;10.102;2023-02-13T00:25:28;8.27;;;6.60;;
6292;SDS011;3179;54.350;10.102;2023-02-13T00:27:55;12.03;;;7.40;;
6292;SDS011;3179;54.350;10.102;2023-02-13T00:30:22;8.83;;;7.20;;
6292;SDS011;3179;54.350;10.102;2023-02-13T00:32:49;9.77;;;6.23;;
6292;SDS011;3179;54.350;10.102;2023-02-13T00:35:15;10.13;;;6.80;;
6292;SDS011;3179;54.350;10.102;2023-02-13T00:37:42;10.20;;;6.83;;
6292;SDS011;3179;54.350;10.102;2023-02-13T00:40:09;10.10;;;6.23;;
6292;SDS011;3179;54.350;10.102;2023-02-13T00:42:38;16.13;;;8.23;;
6292;SDS011;3179;54.350;10.102;2023-02-13T00:45:05;12.30;;;6.80;;
6292;SDS011;3179;54.350;10.102;2023-02-13T00:47:32;8.87;;;6.43;;
6292;SDS011;3179;54.350;10.102;2023-02-13T00:49:59;9.80;;;6.87;;
6292;SDS011;3179;54.350;10.102;2023-02-13T00:52:26;8.17;;;6.63;;
6292;SDS011;3179;54.350;10.102;2023-02-13T00:54:52;7.40;;;6.57;;
6292;SDS011;3179;54.350;10.102;2023-02-13T00:57:19;12.40;;;7.83;;
6292;SDS011;3179;54.350;10.102;2023-02-13T00:59:47;9.77;;;6.63;;
6292;SDS011;3179;54.350;10.102;2023-02-13T01:02:14;12.07;;;6.97;;
6292;SDS011;3179;54.350;10.102;2023-02-13T01:04:41;9.53;;;7.23;;
6292;SDS011;3179;54.350;10.102;2023-02-13T01:07:08;7.87;;;6.27;;
6292;SDS011;3179;54.350;10.102;2023-02-13T01:09:36;8.80;;;5.87;;
6292;SDS011;3179;54.350;10.102;2023-02-13T01:12:03;6.87;;;6.03;;
6292;SDS011;3179;54.350;10.102;2023-02-13T01:14:30;9.60;;;7.30;;
6292;SDS011;3179;54.350;10.102;2023-02-13T01:16:59;8.73;;;6.30;;
6292;SDS011;3179;54.350;10.102;2023-02-13T01:19:26;7.87;;;7.07;;
6292;SDS011;3179;54.350;10.102;2023-02-13T01:21:53;8.80;;;6.20;;
6292;SDS011;3179;54.350;10.102;2023-02-13T01:24:20;9.87;;;6.50;;
6292;SDS011;3179;54.350;10.102;2023-02-13T01:26:47;9.30;;;7.57;;
6292;SDS011;3179;54.350;10.102;2023-02-13T01:29:14;9.67;;;6.17;;
6292;SDS011;3179;54.350;10.102;2023-02-13T01:31:40;7.53;;;6.40;;
6292;SDS011;3179;54.350;10.102;2023-02-13T01:34:08;9.07;;;7.00;;
6292;SDS011;3179;54.350;10.102;2023-02-13T01:36:35;9.07;;;6.30;;
6292;SDS011;3179;54.350;10.102;2023-02-13T01:39:02;7.23;;;6.50;;
6292;SDS011;3179;54.350;10.102;2023-02-13T01:41:29;10.13;;;6.47;;
6292;SDS011;3179;54.350;10.102;2023-02-13T01:43:57;7.30;;;5.87;;
6292;SDS011;3179;54.350;10.102;2023-02-13T01:46:27;7.90;;;6.63;;
6292;SDS011;3179;54.350;10.102;2023-02-13T01:48:57;7.30;;;5.87;;
6292;SDS011;3179;54.350;10.102;2023-02-13T01:51:29;9.07;;;6.47;;
6292;SDS011;3179;54.350;10.102;2023-02-13T01:53:59;8.30;;;6.33;;
6292;SDS011;3179;54.350;10.102;2023-02-13T01:56:30;7.67;;;5.57;;
6292;SDS011;3179;54.350;10.102;2023-02-13T01:59:00;7.80;;;6.60;;
6292;SDS011;3179;54.350;10.102;2023-02-13T02:01:30;9.40;;;6.93;;
6292;SDS011;3179;54.350;10.102;2023-02-13T02:03:59;6.33;;;4.90;;
6292;SDS011;3179;54.350;10.102;2023-02-13T02:06:31;7.87;;;6.23;;
6292;SDS011;3179;54.350;10.102;2023-02-13T02:09:02;9.40;;;6.20;;
6292;SDS011;3179;54.350;10.102;2023-02-13T02:11:34;7.17;;;5.43;;
6292;SDS011;3179;54.350;10.102;2023-02-13T02:14:06;9.03;;;6.07;;
6292;SDS011;3179;54.350;10.102;2023-02-13T02:16:33;8.60;;;6.43;;
6292;SDS011;3179;54.350;10.102;2023-02-13T02:19:00;9.57;;;6.70;;
6292;SDS011;3179;54.350;10.102;2023-02-13T02:31:00;8.30;;;5.60;;
6292;SDS011;3179;54.350;10.102;2023-02-13T02:33:55;7.67;;;5.37;;
6292;SDS011;3179;54.350;10.102;2023-02-13T02:36:33;5.60;;;5.03;;
6292;SDS011;3179;54.350;10.102;2023-02-13T02:39:13;7.00;;;5.93;;
6292;SDS011;3179;54.350;10.102;2023-02-13T02:41:50;8.50;;;6.43;;
6292;SDS011;3179;54.350;10.102;2023-02-13T02:44:30;7.90;;;6.23;;
6292;SDS011;3179;54.350;10.102;2023-02-13T02:50:12;9.37;;;5.30;;
6292;SDS011;3179;54.350;10.102;2023-02-13T02:52:47;6.50;;;5.30;;
6292;SDS011;3179;54.350;10.102;2023-02-13T02:55:28;7.30;;;5.60;;
6292;SDS011;3179;54.350;10.102;2023-02-13T02:58:01;6.50;;;4.73;;
6292;SDS011;3179;54.350;10.102;2023-02-13T03:00:51;5.83;;;5.20;;
6292;SDS011;3179;54.350;10.102;2023-02-13T03:03:37;5.70;;;5.07;;
6292;SDS011;3179;54.350;10.102;2023-02-13T03:06:24;6.10;;;5.07;;
6292;SDS011;3179;54.350;10.102;2023-02-13T03:09:03;7.00;;;5.17;;
6292;SDS011;3179;54.350;10.102;2023-02-13T03:11:50;6.17;;;5.30;;
6292;SDS011;3179;54.350;10.102;2023-02-13T03:14:37;8.33;;;6.23;;
6292;SDS011;3179;54.350;10.102;2023-02-13T03:17:04;10.77;;;5.90;;
6292;SDS011;3179;54.350;10.102;2023-02-13T03:19:54;8.00;;;5.10;;
6292;SDS011;3179;54.350;10.102;2023-02-13T03:22:50;7.37;;;5.33;;
6292;SDS011;3179;54.350;10.102;2023-02-13T03:25:33;6.93;;;5.63;;
6292;SDS011;3179;54.350;10.102;2023-02-13T03:28:09;7.03;;;5.17;;
6292;SDS011;3179;54.350;10.102;2023-02-13T03:31:00;6.00;;;5.40;;
6292;SDS011;3179;54.350;10.102;2023-02-13T03:33:43;7.10;;;4.77;;
6292;SDS011;3179;54.350;10.102;2023-02-13T03:36:22;6.33;;;5.27;;
6292;SDS011;3179;54.350;10.102;2023-02-13T03:39:22;7.10;;;5.60;;
6292;SDS011;3179;54.350;10.102;2023-02-13T03:41:53;5.40;;;4.73;;
6292;SDS011;3179;54.350;10.102;2023-02-13T03:44:25;7.70;;;4.87;;
6292;SDS011;3179;54.350;10.102;2023-02-13T03:46:57;6.77;;;5.43;;
6292;SDS011;3179;54.350;10.102;2023-02-13T03:49:26;5.90;;;4.73;;
6292;SDS011;3179;54.350;10.102;2023-02-13T03:52:21;6.30;;;5.20;;
6292;SDS011;3179;54.350;10.102;2023-02-13T03:54:54;5.77;;;5.17;;
6292;SDS011;3179;54.350;10.102;2023-02-13T03:57:42;9.57;;;6.23;;
6292;SDS011;3179;54.350;10.102;2023-02-13T04:00:31;6.77;;;6.00;;
6292;SDS011;3179;54.350;10.102;2023-02-13T04:03:04;7.80;;;5.97;;
6292;SDS011;3179;54.350;10.102;2023-02-13T04:05:38;7.23;;;6.10;;
6292;SDS011;3179;54.350;10.102;2023-02-13T04:08:08;8.47;;;6.73;;
6292;SDS011;3179;54.350;10.102;2023-02-13T04:10:38;6.30;;;5.70;;
6292;SDS011;3179;54.350;10.102;2023-02-13T04:13:14;9.23;;;7.07;;
6292;SDS011;3179;54.350;10.102;2023-02-13T04:15:46;7.93;;;6.73;;
6292;SDS011;3179;54.350;10.102;2023-02-13T04:18:18;7.80;;;7.00;;
6292;SDS011;3179;54.350;10.102;2023-02-13T04:20:47;8.93;;;8.00;;
6292;SDS011;3179;54.350;10.102;2023-02-13T04:23:14;11.43;;;7.87;;
6292;SDS011;3179;54.350;10.102;2023-02-13T04:25:44;9.77;;;7.63;;
6292;SDS011;3179;54.350;10.102;2023-02-13T04:28:13;7.73;;;6.93;;
6292;SDS011;3179;54.350;10.102;2023-02-13T04:30:40;8.00;;;7.17;;
6292;SDS011;3179;54.350;10.102;2023-02-13T04:33:07;10.47;;;7.80;;
6292;SDS011;3179;54.350;10.102;2023-02-13T04:35:33;9.83;;;8.80;;
6292;SDS011;3179;54.350;10.102;2023-02-13T04:38:00;10.13;;;8.33;;
6292;SDS011;3179;54.350;10.102;2023-02-13T04:40:27;8.70;;;7.80;;
6292;SDS011;3179;54.350;10.102;2023-02-13T04:42:55;9.70;;;8.20;;
6292;SDS011;3179;54.350;10.102;2023-02-13T04:45:22;10.40;;;9.00;;
6292;SDS011;3179;54.350;10.102;2023-02-13T04:47:49;9.17;;;8.23;;
6292;SDS011;3179;54.350;10.102;2023-02-13T04:50:16;11.20;;;8.20;;
6292;SDS011;3179;54.350;10.102;2023-02-13T04:52:44;8.83;;;7.93;;
6292;SDS011;3179;54.350;10.102;2023-02-13T04:55:10;11.67;;;9.50;;
6292;SDS011;3179;54.350;10.102;2023-02-13T04:57:38;10.17;;;7.80;;
6292;SDS011;3179;54.350;10.102;2023-02-13T05:00:06;9.43;;;8.30;;
6292;SDS011;3179;54.350;10.102;2023-02-13T05:02:35;9.60;;;8.53;;
6292;SDS011;3179;54.350;10.102;2023-02-13T05:05:01;11.10;;;8.90;;
6292;SDS011;3179;54.350;10.102;2023-02-13T05:07:28;11.30;;;9.27;;
6292;SDS011;3179;54.350;10.102;2023-02-13T05:09:55;11.13;;;8.73;;
6292;SDS011;3179;54.350;10.102;2023-02-13T05:12:22;9.63;;;8.63;;
6292;SDS011;3179;54.350;10.102;2023-02-13T05:14:48;10.23;;;8.50;;
6292;SDS011;3179;54.350;10.102;2023-02-13T05:17:17;15.43;;;9.57;;
6292;SDS011;3179;54.350;10.102;2023-02-13T05:19:43;9.90;;;8.77;;
6292;SDS011;3179;54.350;10.102;2023-02-13T05:22:10;12.23;;;9.23;;
6292;SDS011;3179;54.350;10.102;2023-02-13T05:24:54;12.17;;;9.57;;
6292;SDS011;3179;54.350;10.102;2023-02-13T05:27:21;11.90;;;9.40;;
6292;SDS011;3179;54.350;10.102;2023-02-13T05:29:48;13.17;;;9.80;;
6292;SDS011;3179;54.350;10.102;2023-02-13T05:32:16;12.43;;;9.83;;
6292;SDS011;3179;54.350;10.102;2023-02-13T05:34:43;11.50;;;9.57;;
6292;SDS011;3179;54.350;10.102;2023-02-13T05:37:09;15.00;;;10.87;;
6292;SDS011;3179;54.350;10.102;2023-02-13T05:39:36;14.33;;;10.83;;
6292;SDS011;3179;54.350;10.102;2023-02-13T05:42:03;11.40;;;10.17;;
6292;SDS011;3179;54.350;10.102;2023-02-13T05:44:30;12.00;;;10.00;;
6292;SDS011;3179;54.350;10.102;2023-02-13T05:46:57;13.23;;;10.03;;
6292;SDS011;3179;54.350;10.102;2023-02-13T05:49:26;12.40;;;9.90;;
6292;SDS011;3179;54.350;10.102;2023-02-13T05:51:52;13.13;;;10.87;;
6292;SDS011;3179;54.350;10.102;2023-02-13T05:54:19;12.83;;;10.07;;
6292;SDS011;3179;54.350;10.102;2023-02-13T05:56:46;17.47;;;11.73;;
6292;SDS011;3179;54.350;10.102;2023-02-13T05:59:13;13.37;;;10.80;;
6292;SDS011;3179;54.350;10.102;2023-02-13T06:01:40;13.83;;;11.70;;
6292;SDS011;3179;54.350;10.102;2023-02-13T06:04:07;12.80;;;10.47;;
6292;SDS011;3179;54.350;10.102;2023-02-13T06:06:35;14.73;;;11.27;;
6292;SDS011;3179;54.350;10.102;2023-02-13T06:09:02;13.23;;;11.37;;
6292;SDS011;3179;54.350;10.102;2023-02-13T06:11:29;12.77;;;11.13;;
6292;SDS011;3179;54.350;10.102;2023-02-13T06:13:56;13.30;;;11.00;;
6292;SDS011;3179;54.350;10.102;2023-02-13T06:16:22;18.30;;;12.30;;
6292;SDS011;3179;54.350;10.102;2023-02-13T06:18:49;14.60;;;11.10;;
6292;SDS011;3179;54.350;10.102;2023-02-13T06:21:16;15.23;;;10.97;;
6292;SDS011;3179;54.350;10.102;2023-02-13T06:23:44;13.43;;;11.30;;
6292;SDS011;3179;54.350;10.102;2023-02-13T06:26:11;15.37;;;12.70;;
6292;SDS011;3179;54.350;10.102;2023-02-13T06:28:38;14.37;;;12.50;;
6292;SDS011;3179;54.350;10.102;2023-02-13T06:31:05;12.40;;;10.50;;
6292;SDS011;3179;54.350;10.102;2023-02-13T06:33:31;14.03;;;11.87;;
6292;SDS011;3179;54.350;10.102;2023-02-13T06:35:58;14.70;;;11.70;;
6292;SDS011;3179;54.350;10.102;2023-02-13T06:38:25;14.57;;;12.17;;
6292;SDS011;3179;54.350;10.102;2023-02-13T06:40:57;13.63;;;10.43;;
6292;SDS011;3179;54.350;10.102;2023-02-13T06:43:25;14.10;;;11.30;;
6292;SDS011;3179;54.350;10.102;2023-02-13T06:45:52;14.53;;;10.93;;
6292;SDS011;3179;54.350;10.102;2023-02-13T06:48:19;16.80;;;12.40;;
6292;SDS011;3179;54.350;10.102;2023-02-13T06:50:46;14.07;;;11.07;;
6292;SDS011;3179;54.350;10.102;2023-02-13T06:53:13;14.00;;;10.50;;
6292;SDS011;3179;54.350;10.102;2023-02-13T06:55:39;13.20;;;11.03;;
6292;SDS011;3179;54.350;10.102;2023-02-13T06:58:08;12.67;;;10.63;;
6292;SDS011;3179;54.350;10.102;2023-02-13T07:00:34;14.07;;;10.90;;
6292;SDS011;3179;54.350;10.102;2023-02-13T07:03:02;15.40;;;11.23;;
6292;SDS011;3179;54.350;10.102;2023-02-13T07:05:30;16.60;;;12.27;;
6292;SDS011;3179;54.350;10.102;2023-02-13T07:07:57;15.80;;;10.70;;
6292;SDS011;3179;54.350;10.102;2023-02-13T07:10:24;13.77;;;10.57;;
6292;SDS011;3179;54.350;10.102;2023-02-13T07:12:51;15.77;;;10.30;;
6292;SDS011;3179;54.350;10.102;2023-02-13T07:15:19;14.00;;;10.83;;
6292;SDS011;3179;54.350;10.102;2023-02-13T07:17:46;14.57;;;10.53;;
6292;SDS011;3179;54.350;10.102;2023-02-13T07:20:12;14.70;;;10.80;;
6292;SDS011;3179;54.350;10.102;2023-02-13T07:22:39;12.83;;;10.10;;
6292;SDS011;3179;54.350;10.102;2023-02-13T07:25:06;13.10;;;9.53;;
6292;SDS011;3179;54.350;10.102;2023-02-13T07:27:33;13.40;;;10.50;;
6292;SDS011;3179;54.350;10.102;2023-02-13T07:30:00;13.80;;;10.23;;
6292;SDS011;3179;54.350;10.102;2023-02-13T07:32:28;12.33;;;10.27;;
6292;SDS011;3179;54.350;10.102;2023-02-13T07:34:55;12.80;;;9.87;;
6292;SDS011;3179;54.350;10.102;2023-02-13T07:37:21;11.87;;;9.90;;
6292;SDS011;3179;54.350;10.102;2023-02-13T07:39:48;11.80;;;8.83;;
6292;SDS011;3179;54.350;10.102;2023-02-13T07:42:15;11.07;;;9.13;;
6292;SDS011;3179;54.350;10.102;2023-02-13T07:44:42;10.73;;;8.40;;
6292;SDS011;3179;54.350;10.102;2023-02-13T07:47:08;13.60;;;8.30;;
6292;SDS011;3179;54.350;10.102;2023-02-13T07:49:36;11.17;;;7.80;;
6292;SDS011;3179;54.350;10.102;2023-02-13T07:52:04;10.63;;;7.77;;
6292;SDS011;3179;54.350;10.102;2023-02-13T07:54:31;9.47;;;8.30;;
6292;SDS011;3179;54.350;10.102;2023-02-13T07:56:58;9.20;;;7.83;;
6292;SDS011;3179;54.350;10.102;2023-02-13T07:59:25;9.80;;;7.20;;
6292;SDS011;3179;54.350;10.102;2023-02-13T08:01:51;9.40;;;7.80;;
6292;SDS011;3179;54.350;10.102;2023-02-13T08:04:18;9.23;;;7.13;;
6292;SDS011;3179;54.350;10.102;2023-02-13T08:06:46;7.07;;;6.27;;
6292;SDS011;3179;54.350;10.102;2023-02-13T08:09:16;8.20;;;6.93;;
6292;SDS011;3179;54.350;10.102;2023-02-13T08:12:03;8.67;;;6.60;;
6292;SDS011;3179;54.350;10.102;2023-02-13T08:14:32;8.20;;;6.77;;
6292;SDS011;3179;54.350;10.102;2023-02-13T08:16:59;7.37;;;5.97;;
6292;SDS011;3179;54.350;10.102;2023-02-13T08:19:26;6.93;;;5.50;;
6292;SDS011;3179;54.350;10.102;2023-02-13T08:21:54;7.20;;;6.17;;
6292;SDS011;3179;54.350;10.102;2023-02-13T08:24:22;6.67;;;6.00;;
6292;SDS011;3179;54.350;10.102;2023-02-13T08:26:49;8.63;;;6.50;;
6292;SDS011;3179;54.350;10.102;2023-02-13T08:29:15;10.40;;;6.23;;
6292;SDS011;3179;54.350;10.102;2023-02-13T08:31:42;8.03;;;6.10;;
6292;SDS011;3179;54.350;10.102;2023-02-13T08:34:09;7.27;;;6.37;;
6292;SDS011;3179;54.350;10.102;2023-02-13T08:36:36;6.63;;;5.47;;
6292;SDS011;3179;54.350;10.102;2023-02-13T08:39:04;7.90;;;5.30;;
6292;SDS011;3179;54.350;10.102;2023-02-13T08:41:30;6.07;;;5.07;;
6292;SDS011;3179;54.350;10.102;2023-02-13T08:43:57;8.77;;;5.80;;
6292;SDS011;3179;54.350;10.102;2023-02-13T08:46:24;6.70;;;5.67;;
6292;SDS011;3179;54.350;10.102;2023-02-13T08:48:51;7.87;;;5.77;;
6292;SDS011;3179;54.350;10.102;2023-02-13T08:51:17;6.97;;;6.20;;
6292;SDS011;3179;54.350;10.102;2023-02-13T08:53:44;6.60;;;5.80;;
6292;SDS011;3179;54.350;10.102;2023-02-13T08:56:12;5.40;;;4.90;;
6292;SDS011;3179;54.350;10.102;2023-02-13T08:58:39;8.40;;;6.70;;
6292;SDS011;3179;54.350;10.102;2023-02-13T09:01:06;10.83;;;6.33;;
6292;SDS011;3179;54.350;10.102;2023-02-13T09:03:33;9.40;;;6.23;;
6292;SDS011;3179;54.350;10.102;2023-02-13T09:06:01;7.87;;;5.97;;
6292;SDS011;3179;54.350;10.102;2023-02-13T09:08:27;7.70;;;5.93;;
6292;SDS011;3179;54.350;10.102;2023-02-13T09:10:54;5.60;;;5.00;;
6292;SDS011;3179;54.350;10.102;2023-02-13T09:13:24;6.40;;;5.27;;
6292;SDS011;3179;54.350;10.102;2023-02-13T09:15:51;7.73;;;5.50;;
6292;SDS011;3179;54.350;10.102;2023-02-13T09:18:17;7.27;;;6.10;;
6292;SDS011;3179;54.350;10.102;2023-02-13T09:20:44;5.97;;;5.37;;
6292;SDS011;3179;54.350;10.102;2023-02-13T09:23:11;6.90;;;5.50;;
6292;SDS011;3179;54.350;10.102;2023-02-13T09:25:37;9.03;;;6.07;;
6292;SDS011;3179;54.350;10.102;2023-02-13T09:28:04;9.23;;;5.87;;
6292;SDS011;3179;54.350;10.102;2023-02-13T09:30:32;8.30;;;6.20;;
6292;SDS011;3179;54.350;10.102;2023-02-13T09:32:59;6.33;;;5.73;;
6292;SDS011;3179;54.350;10.102;2023-02-13T09:35:26;7.90;;;5.40;;
6292;SDS011;3179;54.350;10.102;2023-02-13T09:37:53;6.03;;;5.00;;
6292;SDS011;3179;54.350;10.102;2023-02-13T09:40:22;6.73;;;5.93;;
6292;SDS011;3179;54.350;10.102;2023-02-13T09:42:54;9.27;;;7.03;;
6292;SDS011;3179;54.350;10.102;2023-02-13T09:45:30;7.37;;;5.70;;
6292;SDS011;3179;54.350;10.102;2023-02-13T09:47:59;7.50;;;6.00;;
6292;SDS011;3179;54.350;10.102;2023-02-13T09:50:26;10.20;;;5.27;;
6292;SDS011;3179;54.350;10.102;2023-02-13T09:52:57;6.50;;;5.37;;
6292;SDS011;3179;54.350;10.102;2023-02-13T09:55:26;6.00;;;5.40;;
6292;SDS011;3179;54.350;10.102;2023-02-13T09:58:02;7.70;;;6.40;;
6292;SDS011;3179;54.350;10.102;2023-02-13T10:00:40;6.30;;;5.70;;
6292;SDS011;3179;54.350;10.102;2023-02-13T10:03:22;7.77;;;6.33;;
6292;SDS011;3179;54.350;10.102;2023-02-13T10:06:03;9.40;;;6.50;;
6292;SDS011;3179;54.350;10.102;2023-02-13T10:08:40;6.00;;;5.43;;
6292;SDS011;3179;54.350;10.102;2023-02-13T10:11:25;6.97;;;6.27;;
6292;SDS011;3179;54.350;10.102;2023-02-13T10:14:08;6.13;;;5.43;;
6292;SDS011;3179;54.350;10.102;2023-02-13T10:16:39;7.73;;;6.33;;
6292;SDS011;3179;54.350;10.102;2023-02-13T10:19:13;9.20;;;6.33;;
6292;SDS011;3179;54.350;10.102;2023-02-13T10:21:48;6.80;;;6.10;;
6292;SDS011;3179;54.350;10.102;2023-02-13T10:24:19;7.10;;;5.73;;
6292;SDS011;3179;54.350;10.102;2023-02-13T10:26:55;8.03;;;6.80;;
6292;SDS011;3179;54.350;10.102;2023-02-13T10:29:24;7.20;;;6.43;;
6292;SDS011;3179;54.350;10.102;2023-02-13T10:32:19;8.63;;;6.83;;
6292;SDS011;3179;54.350;10.102;2023-02-13T10:34:51;8.70;;;6.27;;
6292;SDS011;3179;54.350;10.102;2023-02-13T10:37:22;7.50;;;6.37;;
6292;SDS011;3179;54.350;10.102;2023-02-13T10:39:50;8.80;;;6.63;;
6292;SDS011;3179;54.350;10.102;2023-02-13T10:42:20;7.37;;;6.37;;
6292;SDS011;3179;54.350;10.102;2023-02-13T10:44:51;8.70;;;7.00;;
6292;SDS011;3179;54.350;10.102;2023-02-13T10:47:31;8.53;;;6.40;;
6292;SDS011;3179;54.350;10.102;2023-02-13T10:50:21;10.93;;;6.97;;
6292;SDS011;3179;54.350;10.102;2023-02-13T10:52:56;12.10;;;7.53;;
6292;SDS011;3179;54.350;10.102;2023-02-13T10:58:38;10.47;;;7.87;;
6292;SDS011;3179;54.350;10.102;2023-02-13T11:01:15;9.20;;;7.00;;
6292;SDS011;3179;54.350;10.102;2023-02-13T11:03:59;9.67;;;8.30;;
6292;SDS011;3179;54.350;10.102;2023-02-13T11:06:31;9.20;;;8.10;;
6292;SDS011;3179;54.350;10.102;2023-02-13T11:09:00;9.97;;;7.83;;
6292;SDS011;3179;54.350;10.102;2023-02-13T11:11:27;9.13;;;7.67;;
6292;SDS011;3179;54.350;10.102;2023-02-13T11:14:06;9.80;;;8.00;;
6292;SDS011;3179;54.350;10.102;2023-02-13T11:16:39;9.73;;;7.90;;
6292;SDS011;3179;54.350;10.102;2023-02-13T11:19:15;10.60;;;8.67;;
6292;SDS011;3179;54.350;10.102;2023-02-13T11:21:45;11.10;;;8.57;;
6292;SDS011;3179;54.350;10.102;2023-02-13T11:24:17;12.03;;;9.43;;
6292;SDS011;3179;54.350;10.102;2023-02-13T11:26:48;10.23;;;8.30;;
6292;SDS011;3179;54.350;10.102;2023-02-13T11:29:20;10.43;;;8.43;;
6292;SDS011;3179;54.350;10.102;2023-02-13T11:32:00;9.53;;;7.97;;
6292;SDS011;3179;54.350;10.102;2023-02-13T11:34:30;9.23;;;8.23;;
6292;SDS011;3179;54.350;10.102;2023-02-13T11:37:13;12.67;;;8.83;;
6292;SDS011;3179;54.350;10.102;2023-02-13T11:39:46;14.37;;;9.10;;
6292;SDS011;3179;54.350;10.102;2023-02-13T11:42:14;8.60;;;7.77;;
6292;SDS011;3179;54.350;10.102;2023-02-13T11:44:42;9.30;;;7.90;;
6292;SDS011;3179;54.350;10.102;2023-02-13T11:47:13;11.33;;;8.80;;
6292;SDS011;3179;54.350;10.102;2023-02-13T11:49:43;10.80;;;8.70;;
6292;SDS011;3179;54.350;10.102;2023-02-13T11:52:21;10.47;;;8.67;;
6292;SDS011;3179;54.350;10.102;2023-02-13T11:54:54;11.40;;;8.57;;
6292;SDS011;3179;54.350;10.102;2023-02-13T11:57:24;10.80;;;9.17;;
6292;SDS011;3179;54.350;10.102;2023-02-13T11:59:55;10.13;;;8.70;;
6292;SDS011;3179;54.350;10.102;2023-02-13T12:02:23;10.10;;;8.07;;
6292;SDS011;3179;54.350;10.102;2023-02-13T12:04:52;14.30;;;9.53;;
6292;SDS011;3179;54.350;10.102;2023-02-13T12:07:23;10.20;;;7.70;;
6292;SDS011;3179;54.350;10.102;2023-02-13T12:09:53;8.83;;;7.73;;
6292;SDS011;3179;54.350;10.102;2023-02-13T12:12:27;8.97;;;8.07;;
6292;SDS011;3179;54.350;10.102;2023-02-13T12:14:58;8.00;;;7.20;;
6292;SDS011;3179;54.350;10.102;2023-02-13T12:17:28;9.17;;;7.30;;
6292;SDS011;3179;54.350;10.102;2023-02-13T12:19:57;7.97;;;6.33;;
6292;SDS011;3179;54.350;10.102;2023-02-13T12:22:35;9.10;;;6.80;;
6292;SDS011;3179;54.350;10.102;2023-02-13T12:25:18;8.93;;;6.80;;
6292;SDS011;3179;54.350;10.102;2023-02-13T12:27:57;7.23;;;5.73;;
6292;SDS011;3179;54.350;10.102;2023-02-13T12:33:54;8.97;;;3.60;;
6292;SDS011;3179;54.350;10.102;2023-02-13T12:36:33;5.30;;;3.60;;
6292;SDS011;3179;54.350;10.102;2023-02-13T12:39:15;4.90;;;3.30;;
6292;SDS011;3179;54.350;10.102;2023-02-13T12:41:48;3.00;;;2.80;;
6292;SDS011;3179;54.350;10.102;2023-02-13T12:44:36;4.70;;;3.20;;
6292;SDS011;3179;54.350;10.102;2023-02-13T12:47:15;6.07;;;4.73;;
6292;SDS011;3179;54.350;10.102;2023-02-13T12:50:01;4.03;;;3.20;;
6292;SDS011;3179;54.350;10.102;2023-02-13T12:52:41;6.80;;;3.90;;
6292;SDS011;3179;54.350;10.102;2023-02-13T12:55:31;5.17;;;3.60;;
6292;SDS011;3179;54.350;10.102;2023-02-13T12:58:14;6.27;;;4.17;;
6292;SDS011;3179;54.350;10.102;2023-02-13T13:00:52;6.27;;;5.03;;
6292;SDS011;3179;54.350;10.102;2023-02-13T13:03:33;4.77;;;3.60;;
6292;SDS011;3179;54.350;10.102;2023-02-13T13:09:08;5.00;;;4.33;;
6292;SDS011;3179;54.350;10.102;2023-02-13T13:12:12;6.30;;;5.20;;
6292;SDS011;3179;54.350;10.102;2023-02-13T13:14:51;6.23;;;4.83;;
6292;SDS011;3179;54.350;10.102;2023-02-13T13:17:24;7.63;;;4.03;;
6292;SDS011;3179;54.350;10.102;2023-02-13T13:20:00;4.70;;;4.20;;
6292;SDS011;3179;54.350;10.102;2023-02-13T13:22:40;5.70;;;4.17;;
6292;SDS011;3179;54.350;10.102;2023-02-13T13:25:17;6.53;;;4.13;;
6292;SDS011;3179;54.350;10.102;2023-02-13T13:27:51;5.93;;;4.70;;
6292;SDS011;3179;54.350;10.102;2023-02-13T13:30:25;4.40;;;4.00;;
6292;SDS011;3179;54.350;10.102;2023-02-13T13:32:54;4.97;;;3.97;;
6292;SDS011;3179;54.350;10.102;2023-02-13T13:35:25;4.80;;;4.33;;
6292;SDS011;3179;54.350;10.102;2023-02-13T13:37:55;5.40;;;3.70;;
6292;SDS011;3179;54.350;10.102;2023-02-13T13:40:35;4.73;;;4.23;;
6292;SDS011;3179;54.350;10.102;2023-02-13T13:43:14;4.70;;;3.83;;
6292;SDS011;3179;54.350;10.102;2023-02-13T13:45:48;7.67;;;4.20;;
6292;SDS011;3179;54.350;10.102;2023-02-13T13:48:38;7.93;;;4.60;;
6292;SDS011;3179;54.350;10.102;2023-02-13T13:51:15;4.97;;;4.47;;
6292;SDS011;3179;54.350;10.102;2023-02-13T13:57:04;4.93;;;3.77;;
6292;SDS011;3179;54.350;10.102;2023-02-13T14:02:47;5.30;;;4.23;;
6292;SDS011;3179;54.350;10.102;2023-02-13T14:05:22;9.63;;;4.30;;
6292;SDS011;3179;54.350;10.102;2023-02-13T14:07:51;4.40;;;4.00;;
6292;SDS011;3179;54.350;10.102;2023-02-13T14:13:28;5.27;;;4.67;;
6292;SDS011;3179;54.350;10.102;2023-02-13T14:15:58;5.13;;;4.27;;
6292;SDS011;3179;54.350;10.102;2023-02-13T14:18:25;5.10;;;4.30;;
6292;SDS011;3179;54.350;10.102;2023-02-13T14:20:54;5.97;;;4.20;;
6292;SDS011;3179;54.350;10.102;2023-02-13T14:23:32;4.80;;;4.40;;
6292;SDS011;3179;54.350;10.102;2023-02-13T14:32:02;7.00;;;4.10;;
6292;SDS011;3179;54.350;10.102;2023-02-13T14:34:32;7.73;;;4.70;;
6292;SDS011;3179;54.350;10.102;2023-02-13T14:37:18;6.37;;;4.83;;
6292;SDS011;3179;54.350;10.102;2023-02-13T14:40:25;6.73;;;5.43;;
6292;SDS011;3179;54.350;10.102;2023-02-13T14:43:16;9.27;;;4.90;;
6292;SDS011;3179;54.350;10.102;2023-02-13T14:45:47;5.30;;;4.77;;
6292;SDS011;3179;54.350;10.102;2023-02-13T14:48:19;6.43;;;4.63;;
6292;SDS011;3179;54.350;10.102;2023-02-13T14:50:48;7.90;;;4.40;;
6292;SDS011;3179;54.350;10.102;2023-02-13T14:53:19;5.70;;;4.57;;
6292;SDS011;3179;54.350;10.102;2023-02-13T14:55:50;6.17;;;4.70;;
6292;SDS011;3179;54.350;10.102;2023-02-13T14:58:22;6.00;;;4.37;;
6292;SDS011;3179;54.350;10.102;2023-02-13T15:00:54;4.50;;;3.97;;
6292;SDS011;3179;54.350;10.102;2023-02-13T15:03:26;4.13;;;3.73;;
6292;SDS011;3179;54.350;10.102;2023-02-13T15:05:58;5.33;;;4.63;;
6292;SDS011;3179;54.350;10.102;2023-02-13T15:08:30;8.63;;;4.67;;
6292;SDS011;3179;54.350;10.102;2023-02-13T15:11:01;7.00;;;3.83;;
6292;SDS011;3179;54.350;10.102;2023-02-13T15:13:49;5.90;;;4.10;;
6292;SDS011;3179;54.350;10.102;2023-02-13T15:16:16;8.20;;;4.20;;
6292;SDS011;3179;54.350;10.102;2023-02-13T15:18:46;5.37;;;4.00;;
6292;SDS011;3179;54.350;10.102;2023-02-13T15:21:17;4.60;;;4.20;;
6292;SDS011;3179;54.350;10.102;2023-02-13T15:23:48;6.57;;;4.33;;
6292;SDS011;3179;54.350;10.102;2023-02-13T15:26:18;5.70;;;4.63;;
6292;SDS011;3179;54.350;10.102;2023-02-13T15:28:56;4.50;;;3.40;;
6292;SDS011;3179;54.350;10.102;2023-02-13T15:31:23;4.40;;;4.00;;
6292;SDS011;3179;54.350;10.102;2023-02-13T15:33:56;6.03;;;3.67;;
6292;SDS011;3179;54.350;10.102;2023-02-13T15:36:24;6.87;;;4.70;;
6292;SDS011;3179;54.350;10.102;2023-02-13T15:38:58;4.73;;;4.00;;
6292;SDS011;3179;54.350;10.102;2023-02-13T15:41:28;5.47;;;4.40;;
6292;SDS011;3179;54.350;10.102;2023-02-13T15:43:59;4.00;;;3.60;;
6292;SDS011;3179;54.350;10.102;2023-02-13T15:46:26;6.13;;;4.00;;
6292;SDS011;3179;54.350;10.102;2023-02-13T15:48:59;6.10;;;3.90;;
6292;SDS011;3179;54.350;10.102;2023-02-13T15:51:29;6.50;;;4.10;;
6292;SDS011;3179;54.350;10.102;2023-02-13T15:53:59;4.87;;;3.33;;
6292;SDS011;3179;54.350;10.102;2023-02-13T15:56:27;4.20;;;3.80;;
6292;SDS011;3179;54.350;10.102;2023-02-13T15:58:55;4.50;;;3.97;;